sensor_id;sensor_type;location;lat;lon;timestamp;pressure;altitude;pressure_sealevel;temperature;humidity
1371;BME280;14306;49.942;11.570;2023-01-23T00:01:34;98768.38;;;2.88;85.39
1371;BME280;14306;49.942;11.570;2023-01-23T00:04:02;98807.44;;;3.31;84.51
1371;BME280;14306;49.942;11.570;2023-01-23T00:06:31;98799.69;;;3.05;85.20
1371;BME280;14306;49.942;11.570;2023-01-23T00:08:58;98802.41;;;2.99;85.85
1371;BME280;14306;49.942;11.570;2023-01-23T00:11:29;98805.94;;;2.99;85.28
1371;BME280;14306;49.942;11.570;2023-01-23T00:13:58;98807.88;;;3.10;84.86
1371;BME280;14306;49.942;11.570;2023-01-23T00:16:29;98802.88;;;3.14;84.83
1371;BME280;14306;49.942;11.570;2023-01-23T00:18:59;98803.19;;;3.06;85.94
1371;BME280;14306;49.942;11.570;2023-01-23T00:21:28;98813.50;;;3.20;84.90
1371;BME280;14306;49.942;11.570;2023-01-23T00:23:58;98811.56;;;2.91;86.00
1371;BME280;14306;49.942;11.570;2023-01-23T00:26:28;98810.56;;;3.10;85.55
1371;BME280;14306;49.942;11.570;2023-01-23T00:28:58;98820.22;;;3.11;85.65
1371;BME280;14306;49.942;11.570;2023-01-23T00:31:27;98822.50;;;3.08;85.73
1371;BME280;14306;49.942;11.570;2023-01-23T00:34:00;98814.25;;;2.91;86.26
1371;BME280;14306;49.942;11.570;2023-01-23T00:36:30;98819.31;;;2.99;85.57
1371;BME280;14306;49.942;11.570;2023-01-23T00:38:58;98822.06;;;3.11;86.20
1371;BME280;14306;49.942;11.570;2023-01-23T00:41:26;98821.81;;;2.94;86.37
1371;BME280;14306;49.942;11.570;2023-01-23T00:43:55;98813.34;;;2.97;86.53
1371;BME280;14306;49.942;11.570;2023-01-23T00:46:23;98822.34;;;3.03;85.68
1371;BME280;14306;49.942;11.570;2023-01-23T00:48:51;98810.09;;;2.95;86.75
1371;BME280;14306;49.942;11.570;2023-01-23T00:51:20;98831.63;;;3.00;85.33
1371;BME280;14306;49.942;11.570;2023-01-23T00:53:48;98833.50;;;2.75;86.18
1371;BME280;14306;49.942;11.570;2023-01-23T00:56:17;98828.16;;;3.18;85.75
1371;BME280;14306;49.942;11.570;2023-01-23T00:58:45;98843.81;;;3.39;84.78
1371;BME280;14306;49.942;11.570;2023-01-23T01:01:14;98841.03;;;3.27;83.97
1371;BME280;14306;49.942;11.570;2023-01-23T01:03:43;98843.72;;;3.27;83.70
1371;BME280;14306;49.942;11.570;2023-01-23T01:06:11;98855.03;;;3.29;84.07
1371;BME280;14306;49.942;11.570;2023-01-23T01:08:41;98859.34;;;3.30;83.90
1371;BME280;14306;49.942;11.570;2023-01-23T01:11:09;98852.06;;;3.37;83.59
1371;BME280;14306;49.942;11.570;2023-01-23T01:13:37;98862.22;;;3.29;83.87
1371;BME280;14306;49.942;11.570;2023-01-23T01:16:06;98856.03;;;3.28;84.61
1371;BME280;14306;49.942;11.570;2023-01-23T01:18:34;98861.97;;;3.12;83.81
1371;BME280;14306;49.942;11.570;2023-01-23T01:21:05;98861.41;;;3.28;84.05
1371;BME280;14306;49.942;11.570;2023-01-23T01:23:34;98859.03;;;3.38;83.84
1371;BME280;14306;49.942;11.570;2023-01-23T01:26:05;98855.47;;;3.26;83.99
1371;BME280;14306;49.942;11.570;2023-01-23T01:28:35;98860.13;;;3.13;85.70
1371;BME280;14306;49.942;11.570;2023-01-23T01:31:05;98874.47;;;3.18;84.82
1371;BME280;14306;49.942;11.570;2023-01-23T01:33:34;98858.66;;;3.17;84.26
1371;BME280;14306;49.942;11.570;2023-01-23T01:36:07;98862.38;;;3.16;84.81
1371;BME280;14306;49.942;11.570;2023-01-23T01:38:35;98862.25;;;3.04;84.77
1371;BME280;14306;49.942;11.570;2023-01-23T01:41:06;98852.94;;;2.89;85.20
1371;BME280;14306;49.942;11.570;2023-01-23T01:43:34;98861.34;;;2.92;84.79
1371;BME280;14306;49.942;11.570;2023-01-23T01:46:09;98865.84;;;2.74;85.41
1371;BME280;14306;49.942;11.570;2023-01-23T01:48:41;98870.28;;;3.04;86.05
1371;BME280;14306;49.942;11.570;2023-01-23T01:51:16;98879.72;;;3.07;85.68
1371;BME280;14306;49.942;11.570;2023-01-23T01:53:48;98875.56;;;2.93;85.63
1371;BME280;14306;49.942;11.570;2023-01-23T01:56:19;98861.28;;;2.99;85.46
1371;BME280;14306;49.942;11.570;2023-01-23T01:58:50;98886.41;;;2.98;85.63
1371;BME280;14306;49.942;11.570;2023-01-23T02:01:22;98872.81;;;3.17;84.88
1371;BME280;14306;49.942;11.570;2023-01-23T02:03:50;98880.13;;;3.28;84.24
1371;BME280;14306;49.942;11.570;2023-01-23T02:06:19;98890.56;;;2.94;85.46
1371;BME280;14306;49.942;11.570;2023-01-23T02:08:52;98864.09;;;3.04;84.82
1371;BME280;14306;49.942;11.570;2023-01-23T02:11:25;98882.13;;;3.15;84.88
1371;BME280;14306;49.942;11.570;2023-01-23T02:13:53;98886.41;;;2.73;85.96
1371;BME280;14306;49.942;11.570;2023-01-23T02:16:25;98891.69;;;3.04;85.65
1371;BME280;14306;49.942;11.570;2023-01-23T02:18:58;98888.19;;;2.55;88.61
1371;BME280;14306;49.942;11.570;2023-01-23T02:21:27;98892.72;;;2.79;86.35
1371;BME280;14306;49.942;11.570;2023-01-23T02:24:05;98905.00;;;2.86;87.36
1371;BME280;14306;49.942;11.570;2023-01-23T02:26:40;98901.09;;;2.58;87.04
1371;BME280;14306;49.942;11.570;2023-01-23T02:29:10;98897.31;;;2.41;88.29
1371;BME280;14306;49.942;11.570;2023-01-23T02:31:39;98896.38;;;2.60;87.40
1371;BME280;14306;49.942;11.570;2023-01-23T02:34:10;98898.56;;;2.94;86.69
1371;BME280;14306;49.942;11.570;2023-01-23T02:36:41;98901.47;;;2.92;85.97
1371;BME280;14306;49.942;11.570;2023-01-23T02:39:13;98895.78;;;2.82;85.85
1371;BME280;14306;49.942;11.570;2023-01-23T02:41:45;98891.63;;;2.86;85.68
1371;BME280;14306;49.942;11.570;2023-01-23T02:44:16;98884.59;;;2.36;87.63
1371;BME280;14306;49.942;11.570;2023-01-23T02:46:44;98905.69;;;2.82;87.67
1371;BME280;14306;49.942;11.570;2023-01-23T02:49:12;98901.63;;;2.97;86.01
1371;BME280;14306;49.942;11.570;2023-01-23T02:51:40;98911.03;;;3.06;85.03
1371;BME280;14306;49.942;11.570;2023-01-23T02:54:08;98903.22;;;3.05;84.53
1371;BME280;14306;49.942;11.570;2023-01-23T02:56:37;98911.47;;;3.03;84.67
1371;BME280;14306;49.942;11.570;2023-01-23T02:59:06;98902.19;;;3.06;85.05
1371;BME280;14306;49.942;11.570;2023-01-23T03:01:52;98889.84;;;3.05;84.40
1371;BME280;14306;49.942;11.570;2023-01-23T03:04:20;98899.13;;;3.02;84.63
1371;BME280;14306;49.942;11.570;2023-01-23T03:06:48;98895.13;;;3.11;84.22
1371;BME280;14306;49.942;11.570;2023-01-23T03:09:17;98895.28;;;3.16;84.35
1371;BME280;14306;49.942;11.570;2023-01-23T03:11:45;98886.72;;;3.08;84.78
1371;BME280;14306;49.942;11.570;2023-01-23T03:14:17;98879.91;;;3.12;84.41
1371;BME280;14306;49.942;11.570;2023-01-23T03:16:46;98869.31;;;2.99;84.21
1371;BME280;14306;49.942;11.570;2023-01-23T03:19:19;98859.00;;;3.02;84.29
1371;BME280;14306;49.942;11.570;2023-01-23T03:21:49;98859.25;;;2.94;84.51
1371;BME280;14306;49.942;11.570;2023-01-23T03:24:18;98852.34;;;2.62;84.46
1371;BME280;14306;49.942;11.570;2023-01-23T03:26:48;98857.97;;;2.79;84.73
1371;BME280;14306;49.942;11.570;2023-01-23T03:29:19;98855.50;;;2.77;84.08
1371;BME280;14306;49.942;11.570;2023-01-23T03:32:06;98845.91;;;2.39;84.02
1371;BME280;14306;49.942;11.570;2023-01-23T03:34:34;98850.19;;;2.46;83.88
1371;BME280;14306;49.942;11.570;2023-01-23T03:37:03;98859.53;;;2.37;84.11
1371;BME280;14306;49.942;11.570;2023-01-23T03:39:33;98855.84;;;2.32;84.70
1371;BME280;14306;49.942;11.570;2023-01-23T03:42:27;98854.88;;;2.20;84.38
1371;BME280;14306;49.942;11.570;2023-01-23T03:44:56;98864.69;;;2.32;83.78
1371;BME280;14306;49.942;11.570;2023-01-23T03:47:24;98866.53;;;1.94;84.45
1371;BME280;14306;49.942;11.570;2023-01-23T03:49:52;98867.13;;;1.52;85.62
1371;BME280;14306;49.942;11.570;2023-01-23T03:52:21;98866.75;;;1.36;85.86
1371;BME280;14306;49.942;11.570;2023-01-23T03:54:50;98870.25;;;1.36;86.30
1371;BME280;14306;49.942;11.570;2023-01-23T03:57:18;98859.81;;;1.22;85.59
1371;BME280;14306;49.942;11.570;2023-01-23T03:59:47;98867.44;;;1.12;86.18
1371;BME280;14306;49.942;11.570;2023-01-23T04:02:17;98877.91;;;0.55;86.33
1371;BME280;14306;49.942;11.570;2023-01-23T04:04:45;98883.84;;;0.76;86.38
1371;BME280;14306;49.942;11.570;2023-01-23T04:07:14;98883.47;;;0.92;85.02
1371;BME280;14306;49.942;11.570;2023-01-23T04:09:42;98886.53;;;1.15;84.21
1371;BME280;14306;49.942;11.570;2023-01-23T04:12:11;98893.06;;;0.48;86.14
1371;BME280;14306;49.942;11.570;2023-01-23T04:14:40;98900.28;;;0.80;87.79
1371;BME280;14306;49.942;11.570;2023-01-23T04:17:09;98892.25;;;1.12;84.92
1371;BME280;14306;49.942;11.570;2023-01-23T04:19:39;98905.00;;;0.97;85.95
1371;BME280;14306;49.942;11.570;2023-01-23T04:22:08;98894.75;;;1.07;87.34
1371;BME280;14306;49.942;11.570;2023-01-23T04:24:36;98891.00;;;1.28;88.55
1371;BME280;14306;49.942;11.570;2023-01-23T04:27:04;98892.78;;;1.60;88.04
1371;BME280;14306;49.942;11.570;2023-01-23T04:29:33;98898.03;;;1.79;87.70
1371;BME280;14306;49.942;11.570;2023-01-23T04:32:01;98904.06;;;2.12;86.65
1371;BME280;14306;49.942;11.570;2023-01-23T04:34:30;98894.03;;;2.39;85.33
1371;BME280;14306;49.942;11.570;2023-01-23T04:37:01;98892.56;;;2.43;84.80
1371;BME280;14306;49.942;11.570;2023-01-23T04:39:30;98903.78;;;2.58;84.25
1371;BME280;14306;49.942;11.570;2023-01-23T04:41:59;98906.84;;;2.24;85.08
1371;BME280;14306;49.942;11.570;2023-01-23T04:44:27;98905.84;;;2.56;84.66
1371;BME280;14306;49.942;11.570;2023-01-23T04:46:55;98914.69;;;2.19;86.05
1371;BME280;14306;49.942;11.570;2023-01-23T04:49:23;98917.28;;;2.38;85.84
1371;BME280;14306;49.942;11.570;2023-01-23T04:51:52;98895.03;;;2.44;84.96
1371;BME280;14306;49.942;11.570;2023-01-23T04:54:22;98913.44;;;2.59;84.75
1371;BME280;14306;49.942;11.570;2023-01-23T04:56:50;98897.69;;;2.51;84.69
1371;BME280;14306;49.942;11.570;2023-01-23T04:59:18;98905.59;;;2.33;84.96
1371;BME280;14306;49.942;11.570;2023-01-23T05:01:51;98904.50;;;2.47;84.67
1371;BME280;14306;49.942;11.570;2023-01-23T05:04:19;98905.84;;;2.56;84.43
1371;BME280;14306;49.942;11.570;2023-01-23T05:06:48;98907.53;;;2.50;84.52
1371;BME280;14306;49.942;11.570;2023-01-23T05:09:17;98920.91;;;2.50;84.78
1371;BME280;14306;49.942;11.570;2023-01-23T05:11:49;98926.25;;;2.50;84.64
1371;BME280;14306;49.942;11.570;2023-01-23T05:14:17;98922.25;;;2.28;85.20
1371;BME280;14306;49.942;11.570;2023-01-23T05:16:47;98940.94;;;2.66;84.42
1371;BME280;14306;49.942;11.570;2023-01-23T05:19:15;98929.72;;;2.57;84.19
1371;BME280;14306;49.942;11.570;2023-01-23T05:21:44;98933.41;;;2.56;84.10
1371;BME280;14306;49.942;11.570;2023-01-23T05:24:12;98928.09;;;2.50;84.22
1371;BME280;14306;49.942;11.570;2023-01-23T05:26:40;98936.84;;;2.32;84.79
1371;BME280;14306;49.942;11.570;2023-01-23T05:29:11;98936.09;;;2.56;84.55
1371;BME280;14306;49.942;11.570;2023-01-23T05:31:39;98940.28;;;2.39;84.29
1371;BME280;14306;49.942;11.570;2023-01-23T05:34:07;98943.13;;;2.44;84.14
1371;BME280;14306;49.942;11.570;2023-01-23T05:36:35;98943.44;;;2.30;84.64
1371;BME280;14306;49.942;11.570;2023-01-23T05:39:03;98944.88;;;2.26;85.26
1371;BME280;14306;49.942;11.570;2023-01-23T05:41:32;98944.69;;;2.27;84.71
1371;BME280;14306;49.942;11.570;2023-01-23T05:44:01;98950.34;;;2.44;84.55
1371;BME280;14306;49.942;11.570;2023-01-23T05:46:31;98952.97;;;2.06;86.00
1371;BME280;14306;49.942;11.570;2023-01-23T05:48:59;98943.47;;;1.66;88.09
1371;BME280;14306;49.942;11.570;2023-01-23T05:51:27;98951.47;;;2.23;86.29
1371;BME280;14306;49.942;11.570;2023-01-23T05:54:00;98914.81;;;1.99;85.88
1371;BME280;14306;49.942;11.570;2023-01-23T05:56:29;98943.06;;;2.20;85.17
1371;BME280;14306;49.942;11.570;2023-01-23T05:58:57;98947.19;;;2.16;85.11
1371;BME280;14306;49.942;11.570;2023-01-23T06:01:25;98955.22;;;2.09;86.22
1371;BME280;14306;49.942;11.570;2023-01-23T06:03:55;98956.31;;;2.02;86.49
1371;BME280;14306;49.942;11.570;2023-01-23T06:06:24;98964.84;;;2.23;85.57
1371;BME280;14306;49.942;11.570;2023-01-23T06:08:53;98966.25;;;2.26;85.28
1371;BME280;14306;49.942;11.570;2023-01-23T06:11:25;98962.03;;;2.05;85.56
1371;BME280;14306;49.942;11.570;2023-01-23T06:13:54;98981.91;;;2.16;85.17
1371;BME280;14306;49.942;11.570;2023-01-23T06:16:24;98981.09;;;2.22;85.94
1371;BME280;14306;49.942;11.570;2023-01-23T06:18:55;98979.22;;;2.29;85.38
1371;BME280;14306;49.942;11.570;2023-01-23T06:21:23;98992.78;;;2.27;85.19
1371;BME280;14306;49.942;11.570;2023-01-23T06:23:51;98994.59;;;2.33;85.48
1371;BME280;14306;49.942;11.570;2023-01-23T06:26:20;99003.59;;;2.39;85.23
1371;BME280;14306;49.942;11.570;2023-01-23T06:28:48;98999.56;;;2.23;84.99
1371;BME280;14306;49.942;11.570;2023-01-23T06:31:17;98999.97;;;2.27;85.22
1371;BME280;14306;49.942;11.570;2023-01-23T06:33:48;99011.03;;;2.37;85.41
1371;BME280;14306;49.942;11.570;2023-01-23T06:36:19;99011.03;;;2.37;85.50
1371;BME280;14306;49.942;11.570;2023-01-23T06:38:49;99017.97;;;2.44;85.76
1371;BME280;14306;49.942;11.570;2023-01-23T06:41:17;99019.16;;;2.61;85.41
1371;BME280;14306;49.942;11.570;2023-01-23T06:43:46;99020.66;;;2.51;85.80
1371;BME280;14306;49.942;11.570;2023-01-23T06:46:15;99016.09;;;2.51;85.06
1371;BME280;14306;49.942;11.570;2023-01-23T06:48:43;99024.28;;;2.63;84.91
1371;BME280;14306;49.942;11.570;2023-01-23T06:51:11;99022.88;;;2.54;85.07
1371;BME280;14306;49.942;11.570;2023-01-23T06:53:42;99033.94;;;2.64;84.83
1371;BME280;14306;49.942;11.570;2023-01-23T06:56:12;99037.78;;;2.74;84.96
1371;BME280;14306;49.942;11.570;2023-01-23T06:58:44;99039.66;;;2.74;84.99
1371;BME280;14306;49.942;11.570;2023-01-23T07:01:14;99026.63;;;2.46;85.27
1371;BME280;14306;49.942;11.570;2023-01-23T07:03:44;99039.88;;;2.72;84.92
1371;BME280;14306;49.942;11.570;2023-01-23T07:06:14;99037.41;;;2.71;84.43
1371;BME280;14306;49.942;11.570;2023-01-23T07:08:44;99038.75;;;2.86;84.88
1371;BME280;14306;49.942;11.570;2023-01-23T07:11:13;99050.22;;;2.93;84.63
1371;BME280;14306;49.942;11.570;2023-01-23T07:13:41;99050.44;;;2.92;84.59
1371;BME280;14306;49.942;11.570;2023-01-23T07:16:09;99051.94;;;2.81;84.99
1371;BME280;14306;49.942;11.570;2023-01-23T07:18:38;99052.88;;;3.00;84.76
1371;BME280;14306;49.942;11.570;2023-01-23T07:21:06;99059.09;;;2.94;84.74
1371;BME280;14306;49.942;11.570;2023-01-23T07:23:35;99056.53;;;3.05;84.23
1371;BME280;14306;49.942;11.570;2023-01-23T07:26:05;99062.09;;;3.10;83.81
1371;BME280;14306;49.942;11.570;2023-01-23T07:28:35;99063.31;;;3.08;84.15
1371;BME280;14306;49.942;11.570;2023-01-23T07:31:04;99068.91;;;3.00;84.40
1371;BME280;14306;49.942;11.570;2023-01-23T07:33:34;99064.75;;;3.10;84.89
1371;BME280;14306;49.942;11.570;2023-01-23T07:36:04;99076.94;;;3.31;83.96
1371;BME280;14306;49.942;11.570;2023-01-23T07:38:34;99067.13;;;3.25;83.63
1371;BME280;14306;49.942;11.570;2023-01-23T07:41:03;99068.38;;;3.22;83.44
1371;BME280;14306;49.942;11.570;2023-01-23T07:43:34;99059.31;;;3.23;84.16
1371;BME280;14306;49.942;11.570;2023-01-23T07:46:04;99058.53;;;3.16;84.18
1371;BME280;14306;49.942;11.570;2023-01-23T07:48:40;99049.81;;;2.59;85.90
1371;BME280;14306;49.942;11.570;2023-01-23T07:51:08;99056.53;;;3.05;85.74
1371;BME280;14306;49.942;11.570;2023-01-23T07:53:38;99052.06;;;2.99;85.21
1371;BME280;14306;49.942;11.570;2023-01-23T07:56:06;99062.44;;;2.83;85.60
1371;BME280;14306;49.942;11.570;2023-01-23T07:58:36;99068.03;;;2.75;86.34
1371;BME280;14306;49.942;11.570;2023-01-23T08:01:08;99071.13;;;2.72;86.54
1371;BME280;14306;49.942;11.570;2023-01-23T08:03:37;99070.84;;;2.93;86.02
1371;BME280;14306;49.942;11.570;2023-01-23T08:06:08;99071.84;;;2.92;85.55
1371;BME280;14306;49.942;11.570;2023-01-23T08:08:40;99065.28;;;2.88;85.68
1371;BME280;14306;49.942;11.570;2023-01-23T08:11:17;99058.38;;;3.11;85.65
1371;BME280;14306;49.942;11.570;2023-01-23T08:13:49;99075.94;;;3.01;85.44
1371;BME280;14306;49.942;11.570;2023-01-23T08:16:18;99075.47;;;3.10;85.88
1371;BME280;14306;49.942;11.570;2023-01-23T08:18:47;99072.28;;;2.89;87.02
1371;BME280;14306;49.942;11.570;2023-01-23T08:21:15;99081.88;;;3.03;85.54
1371;BME280;14306;49.942;11.570;2023-01-23T08:23:44;99076.66;;;3.14;84.77
1371;BME280;14306;49.942;11.570;2023-01-23T08:26:14;99076.66;;;3.14;84.86
1371;BME280;14306;49.942;11.570;2023-01-23T08:28:45;99070.59;;;2.94;85.19
1371;BME280;14306;49.942;11.570;2023-01-23T08:31:17;99066.75;;;2.84;87.07
1371;BME280;14306;49.942;11.570;2023-01-23T08:33:46;99077.84;;;2.87;86.05
1371;BME280;14306;49.942;11.570;2023-01-23T08:36:15;99078.56;;;2.70;86.74
1371;BME280;14306;49.942;11.570;2023-01-23T08:38:44;99078.34;;;3.09;86.18
1371;BME280;14306;49.942;11.570;2023-01-23T08:41:12;99067.84;;;3.07;84.86
1371;BME280;14306;49.942;11.570;2023-01-23T08:43:41;99061.66;;;3.07;86.83
1371;BME280;14306;49.942;11.570;2023-01-23T08:46:10;99076.00;;;3.19;85.50
1371;BME280;14306;49.942;11.570;2023-01-23T08:48:40;99060.25;;;3.35;83.94
1371;BME280;14306;49.942;11.570;2023-01-23T08:51:11;99075.13;;;3.56;83.69
1371;BME280;14306;49.942;11.570;2023-01-23T08:53:40;99065.91;;;3.52;83.58
1371;BME280;14306;49.942;11.570;2023-01-23T08:56:12;99054.53;;;3.81;81.11
1371;BME280;14306;49.942;11.570;2023-01-23T08:58:43;99051.06;;;3.98;81.72
1371;BME280;14306;49.942;11.570;2023-01-23T09:01:12;99055.00;;;4.14;80.49
1371;BME280;14306;49.942;11.570;2023-01-23T09:03:43;99050.28;;;3.18;82.88
1371;BME280;14306;49.942;11.570;2023-01-23T09:06:13;99054.63;;;3.12;84.00
1371;BME280;14306;49.942;11.570;2023-01-23T09:08:42;99062.50;;;3.07;83.31
1371;BME280;14306;49.942;11.570;2023-01-23T09:11:11;99068.91;;;3.31;82.09
1371;BME280;14306;49.942;11.570;2023-01-23T09:13:41;99065.41;;;3.61;82.49
1371;BME280;14306;49.942;11.570;2023-01-23T09:16:09;99074.72;;;4.01;81.05
1371;BME280;14306;49.942;11.570;2023-01-23T09:18:38;99083.53;;;4.81;80.51
1371;BME280;14306;49.942;11.570;2023-01-23T09:21:09;99089.09;;;4.97;77.30
1371;BME280;14306;49.942;11.570;2023-01-23T09:23:38;99089.34;;;4.78;80.46
1371;BME280;14306;49.942;11.570;2023-01-23T09:26:08;99083.22;;;5.18;78.32
1371;BME280;14306;49.942;11.570;2023-01-23T09:28:38;99087.69;;;5.24;75.90
1371;BME280;14306;49.942;11.570;2023-01-23T09:31:10;99087.34;;;4.37;78.94
1371;BME280;14306;49.942;11.570;2023-01-23T09:33:39;99085.47;;;4.92;76.53
1371;BME280;14306;49.942;11.570;2023-01-23T09:36:10;99083.44;;;3.97;77.77
1371;BME280;14306;49.942;11.570;2023-01-23T09:38:39;99082.75;;;3.59;81.21
1371;BME280;14306;49.942;11.570;2023-01-23T09:41:13;99089.09;;;3.89;78.89
1371;BME280;14306;49.942;11.570;2023-01-23T09:43:49;99085.28;;;3.72;80.59
1371;BME280;14306;49.942;11.570;2023-01-23T09:46:24;99088.31;;;3.82;78.74
1371;BME280;14306;49.942;11.570;2023-01-23T09:48:59;99083.75;;;3.33;80.55
1371;BME280;14306;49.942;11.570;2023-01-23T09:51:40;99090.56;;;3.29;80.47
1371;BME280;14306;49.942;11.570;2023-01-23T09:54:19;99076.63;;;3.21;81.55
1371;BME280;14306;49.942;11.570;2023-01-23T09:56:54;99078.03;;;3.54;80.92
1371;BME280;14306;49.942;11.570;2023-01-23T09:59:28;99081.00;;;3.71;81.36
1371;BME280;14306;49.942;11.570;2023-01-23T10:02:13;99086.50;;;3.76;79.67
1371;BME280;14306;49.942;11.570;2023-01-23T10:04:46;99094.31;;;4.45;80.21
1371;BME280;14306;49.942;11.570;2023-01-23T10:07:29;99072.38;;;4.30;77.70
1371;BME280;14306;49.942;11.570;2023-01-23T10:10:19;99081.00;;;4.86;76.66
1371;BME280;14306;49.942;11.570;2023-01-23T10:13:03;99090.84;;;5.21;77.13
1371;BME280;14306;49.942;11.570;2023-01-23T10:15:50;99083.31;;;5.12;79.02
1371;BME280;14306;49.942;11.570;2023-01-23T10:18:24;99071.44;;;4.90;77.88
1371;BME280;14306;49.942;11.570;2023-01-23T10:21:06;99081.91;;;5.09;77.25
1371;BME280;14306;49.942;11.570;2023-01-23T10:23:49;99069.56;;;5.08;76.17
1371;BME280;14306;49.942;11.570;2023-01-23T10:26:25;99064.31;;;4.66;79.42
1371;BME280;14306;49.942;11.570;2023-01-23T10:29:05;99065.69;;;4.75;78.82
1371;BME280;14306;49.942;11.570;2023-01-23T10:31:42;99072.03;;;4.92;79.81
1371;BME280;14306;49.942;11.570;2023-01-23T10:34:16;99064.19;;;4.61;78.34
1371;BME280;14306;49.942;11.570;2023-01-23T10:36:59;99054.50;;;4.42;79.05
1371;BME280;14306;49.942;11.570;2023-01-23T10:39:41;99060.84;;;4.47;81.13
1371;BME280;14306;49.942;11.570;2023-01-23T10:42:20;99058.38;;;4.64;80.05
1371;BME280;14306;49.942;11.570;2023-01-23T10:44:50;99059.78;;;4.84;80.42
1371;BME280;14306;49.942;11.570;2023-01-23T10:47:24;99053.16;;;4.69;80.43
1371;BME280;14306;49.942;11.570;2023-01-23T10:50:00;99059.78;;;4.84;77.68
1371;BME280;14306;49.942;11.570;2023-01-23T10:52:33;99059.16;;;4.82;79.28
1371;BME280;14306;49.942;11.570;2023-01-23T10:55:28;99054.75;;;4.88;78.61
1371;BME280;14306;49.942;11.570;2023-01-23T10:57:59;99064.44;;;5.18;77.91
1371;BME280;14306;49.942;11.570;2023-01-23T11:00:35;99067.72;;;5.73;77.98
1371;BME280;14306;49.942;11.570;2023-01-23T11:03:26;99060.50;;;5.21;76.67
1371;BME280;14306;49.942;11.570;2023-01-23T11:06:01;99053.06;;;5.34;78.07
1371;BME280;14306;49.942;11.570;2023-01-23T11:08:33;99052.28;;;5.57;78.97
1371;BME280;14306;49.942;11.570;2023-01-23T11:11:23;99029.19;;;5.15;80.72
1371;BME280;14306;49.942;11.570;2023-01-23T11:14:05;99054.09;;;5.33;78.69
1371;BME280;14306;49.942;11.570;2023-01-23T11:16:40;99049.72;;;5.50;78.44
1371;BME280;14306;49.942;11.570;2023-01-23T11:19:22;99044.44;;;5.55;77.89
1371;BME280;14306;49.942;11.570;2023-01-23T11:21:55;99044.00;;;5.17;77.62
1371;BME280;14306;49.942;11.570;2023-01-23T11:24:33;99045.44;;;4.90;79.26
1371;BME280;14306;49.942;11.570;2023-01-23T11:27:18;99048.25;;;4.95;79.45
1371;BME280;14306;49.942;11.570;2023-01-23T11:30:02;99038.25;;;4.55;82.20
1371;BME280;14306;49.942;11.570;2023-01-23T11:32:45;99030.16;;;4.43;80.84
1371;BME280;14306;49.942;11.570;2023-01-23T11:35:20;99029.53;;;4.59;80.54
1371;BME280;14306;49.942;11.570;2023-01-23T11:37:55;99028.88;;;4.93;80.58
1371;BME280;14306;49.942;11.570;2023-01-23T11:40:29;99038.22;;;4.91;80.04
1371;BME280;14306;49.942;11.570;2023-01-23T11:43:04;99023.53;;;4.75;80.50
1371;BME280;14306;49.942;11.570;2023-01-23T11:45:47;99019.81;;;4.76;79.35
1371;BME280;14306;49.942;11.570;2023-01-23T11:48:35;99025.94;;;5.13;79.07
1371;BME280;14306;49.942;11.570;2023-01-23T11:51:12;99015.41;;;5.11;78.55
1371;BME280;14306;49.942;11.570;2023-01-23T11:54:04;99015.81;;;5.38;78.96
1371;BME280;14306;49.942;11.570;2023-01-23T11:56:48;99017.94;;;5.36;79.90
1371;BME280;14306;49.942;11.570;2023-01-23T11:59:44;99010.13;;;5.69;77.28
1371;BME280;14306;49.942;11.570;2023-01-23T12:02:40;99018.16;;;5.34;78.96
1371;BME280;14306;49.942;11.570;2023-01-23T12:05:41;99019.50;;;5.78;78.25
1371;BME280;14306;49.942;11.570;2023-01-23T12:08:22;98992.00;;;5.53;76.33
1371;BME280;14306;49.942;11.570;2023-01-23T12:11:06;99018.53;;;5.61;77.15
1371;BME280;14306;49.942;11.570;2023-01-23T12:16:48;99014.41;;;5.35;77.58
1371;BME280;14306;49.942;11.570;2023-01-23T12:19:30;99013.34;;;5.25;78.05
1371;BME280;14306;49.942;11.570;2023-01-23T12:22:10;99003.63;;;5.12;77.84
1371;BME280;14306;49.942;11.570;2023-01-23T12:24:52;98994.16;;;5.21;78.13
1371;BME280;14306;49.942;11.570;2023-01-23T12:27:34;98996.28;;;5.19;77.71
1371;BME280;14306;49.942;11.570;2023-01-23T12:30:27;99005.25;;;5.13;78.51
1371;BME280;14306;49.942;11.570;2023-01-23T12:33:13;98987.44;;;5.30;79.90
1371;BME280;14306;49.942;11.570;2023-01-23T12:35:54;98981.19;;;5.18;77.96
1371;BME280;14306;49.942;11.570;2023-01-23T12:38:30;98990.91;;;4.78;79.44
1371;BME280;14306;49.942;11.570;2023-01-23T12:41:13;98988.16;;;4.67;80.02
1371;BME280;14306;49.942;11.570;2023-01-23T12:43:52;98992.28;;;4.69;80.00
1371;BME280;14306;49.942;11.570;2023-01-23T12:46:25;98990.56;;;4.86;80.42
1371;BME280;14306;49.942;11.570;2023-01-23T12:49:04;98983.53;;;4.74;81.43
1371;BME280;14306;49.942;11.570;2023-01-23T12:51:44;98973.47;;;4.99;80.28
1371;BME280;14306;49.942;11.570;2023-01-23T12:54:28;98977.06;;;4.93;80.70
1371;BME280;14306;49.942;11.570;2023-01-23T12:56:59;98953.09;;;4.80;80.28
1371;BME280;14306;49.942;11.570;2023-01-23T12:59:38;98964.63;;;4.80;80.23
1371;BME280;14306;49.942;11.570;2023-01-23T13:02:17;98958.91;;;4.77;80.75
1371;BME280;14306;49.942;11.570;2023-01-23T13:05:10;98966.44;;;4.57;81.27
1371;BME280;14306;49.942;11.570;2023-01-23T13:07:49;98964.28;;;4.77;81.39
1371;BME280;14306;49.942;11.570;2023-01-23T13:10:45;98960.31;;;4.79;80.60
1371;BME280;14306;49.942;11.570;2023-01-23T13:13:40;98955.06;;;4.43;80.97
1371;BME280;14306;49.942;11.570;2023-01-23T13:16:13;98953.22;;;4.73;80.92
1371;BME280;14306;49.942;11.570;2023-01-23T13:18:53;98953.84;;;4.87;80.20
1371;BME280;14306;49.942;11.570;2023-01-23T13:22:03;98950.38;;;4.68;80.51
1371;BME280;14306;49.942;11.570;2023-01-23T13:24:48;98950.97;;;4.70;81.45
1371;BME280;14306;49.942;11.570;2023-01-23T13:27:45;98956.75;;;4.97;80.46
1371;BME280;14306;49.942;11.570;2023-01-23T13:30:39;98959.22;;;4.98;80.60
1371;BME280;14306;49.942;11.570;2023-01-23T13:36:41;98964.84;;;4.67;80.63
1371;BME280;14306;49.942;11.570;2023-01-23T13:39:26;98952.44;;;4.96;82.42
1371;BME280;14306;49.942;11.570;2023-01-23T13:42:33;98962.75;;;5.10;79.14
1371;BME280;14306;49.942;11.570;2023-01-23T13:45:21;98957.75;;;5.25;79.75
1371;BME280;14306;49.942;11.570;2023-01-23T13:48:12;98946.34;;;4.89;80.50